Shilka, Russia
Current Conditions -  °F | °C
As of 2:30 PM on Sunday 21 Dec 2014 (Local Time) from UIAA Reporting Station
Broken Clouds Broken Clouds  
Wind Chill: 19°   Ceiling: 20000
Heat Index: 28°   Visibility: 6mi
Dew Point: 14°   Wind: 11mph
Humidity: 55%   Direction: 250°WSW
Pressure: 29.77"   Gusts: NA
Location:  51.85°N, 116.03°E
Report Text: UIAA 210530Z 25005MPS 9999 FEW050 BKN200 M02/M10 Q1008 NOSIGRMK QFE698 29350060
Loading
Personal Weather Stations






























Interactive Weather Map New forecast layout! Learn more

10-Day Weather Forecast

Advertisements
Track Severe Weather on mobile